createdAt,value
2023-04-05T16:02:02.568Z,22.00
2023-04-05T16:03:34.621Z,20.00
2023-04-05T16:05:06.846Z,15.00
2023-04-05T16:06:38.668Z,15.00
2023-04-05T16:08:10.819Z,19.20
2023-04-05T16:09:42.736Z,20.80
2023-04-05T16:11:14.624Z,17.60
2023-04-05T16:12:46.629Z,16.40
2023-04-05T16:14:18.438Z,13.00
2023-04-05T16:15:50.731Z,13.00
2023-04-05T16:17:22.728Z,15.60
2023-04-05T16:18:54.658Z,21.40
2023-04-05T16:20:27.473Z,15.00
2023-04-05T16:22:00.249Z,15.40
2023-04-05T16:23:32.162Z,12.80
2023-04-05T16:25:04.587Z,13.20
2023-04-05T16:26:36.577Z,18.40
2023-04-05T16:28:08.448Z,14.40
2023-04-05T16:29:40.328Z,12.00
2023-04-05T16:31:12.608Z,22.00
2023-04-05T16:32:44.550Z,13.00
2023-04-05T16:34:16.549Z,14.20
2023-04-05T16:35:49.001Z,17.80
2023-04-05T16:37:21.097Z,14.60
2023-04-05T16:38:52.929Z,12.00
2023-04-05T16:40:25.451Z,14.20
2023-04-05T16:41:57.314Z,11.60
2023-04-05T16:43:29.172Z,13.40
2023-04-05T16:45:00.993Z,14.80
2023-04-05T16:46:33.045Z,15.40
2023-04-05T16:48:05.105Z,15.20
2023-04-05T16:49:37.183Z,13.00
2023-04-05T16:51:09.021Z,15.60
2023-04-05T16:52:40.887Z,12.60
2023-04-05T16:54:12.845Z,15.00
2023-04-05T16:55:44.760Z,14.40
2023-04-05T16:57:16.652Z,12.00
2023-04-05T16:58:48.481Z,13.20
2023-04-05T17:00:20.884Z,12.60
2023-04-05T17:01:52.960Z,11.80
2023-04-05T17:03:25.045Z,13.40
2023-04-05T17:04:57.120Z,16.60
2023-04-05T17:06:29.251Z,16.20
2023-04-05T17:08:01.142Z,11.60
2023-04-05T17:09:33.324Z,17.60
2023-04-05T17:11:06.132Z,26.80
2023-04-05T17:12:40.810Z,53.40
2023-04-05T17:14:12.692Z,67.50
2023-04-05T17:15:44.577Z,71.00
2023-04-05T17:17:16.506Z,82.00
2023-04-05T17:18:48.400Z,83.00
2023-04-05T17:20:20.555Z,96.80
2023-04-05T17:21:52.406Z,114.50
2023-04-05T17:23:24.776Z,136.75
2023-04-05T17:24:56.638Z,151.50
2023-04-05T17:26:29.351Z,160.75
2023-04-05T17:28:01.161Z,154.75
2023-04-05T17:29:33.029Z,159.25
2023-04-05T17:31:05.112Z,174.25
2023-04-05T17:32:37.122Z,154.00
2023-04-05T17:34:13.167Z,177.50
2023-04-05T17:35:45.058Z,173.25
2023-04-05T17:37:16.933Z,164.75
2023-04-05T17:38:48.830Z,171.75
2023-04-05T17:40:20.696Z,173.75
2023-04-05T17:41:54.882Z,164.00
2023-04-05T17:43:26.949Z,167.50
2023-04-05T17:44:58.822Z,168.75
2023-04-05T17:46:41.563Z,162.25
2023-04-05T17:48:16.837Z,172.25
2023-04-05T17:49:48.944Z,182.50
2023-04-05T17:51:22.125Z,191.00
2023-04-05T17:52:54.041Z,189.75
2023-04-05T17:54:26.023Z,186.50
2023-04-05T17:55:58.174Z,212.00
2023-04-05T17:57:30.113Z,191.00
2023-04-05T17:59:02.190Z,205.00
2023-04-05T18:00:34.091Z,203.67
2023-04-05T18:02:06.217Z,205.33
2023-04-05T18:03:38.159Z,181.33
2023-04-05T18:05:10.459Z,184.00
2023-04-05T18:06:42.312Z,204.33
2023-04-05T18:08:14.163Z,184.50
2023-04-05T18:09:46.079Z,189.00
2023-04-05T18:11:17.944Z,174.75
2023-04-05T18:12:50.509Z,178.75
2023-04-05T18:14:22.322Z,189.00
2023-04-05T18:15:54.954Z,180.00
2023-04-05T18:17:28.281Z,181.75
2023-04-05T18:19:00.457Z,173.25
2023-04-05T18:20:32.333Z,175.50
2023-04-05T18:22:04.324Z,167.75
2023-04-05T18:23:36.177Z,161.75
2023-04-05T18:25:09.914Z,161.50
2023-04-05T18:26:41.769Z,149.50
2023-04-05T18:28:22.223Z,155.75
2023-04-05T18:29:55.234Z,141.75
2023-04-05T18:31:28.459Z,143.75
2023-04-05T18:33:00.466Z,146.00
2023-04-05T18:34:32.496Z,135.75
2023-04-05T18:36:04.579Z,144.50
2023-04-05T18:37:36.676Z,127.75
2023-04-05T18:39:08.990Z,111.25
2023-04-05T18:40:41.154Z,145.25
2023-04-05T18:42:13.072Z,134.00
2023-04-05T18:43:44.991Z,94.80
2023-04-05T18:45:17.287Z,100.60
2023-04-05T18:46:49.866Z,84.75
2023-04-05T18:48:24.334Z,95.25
2023-04-05T18:49:56.259Z,89.50
2023-04-05T18:51:28.757Z,90.75
2023-04-05T18:53:00.716Z,86.25
2023-04-05T18:54:32.523Z,77.00
2023-04-05T18:56:04.401Z,81.00
2023-04-05T18:57:36.368Z,83.25
2023-04-05T18:59:08.484Z,91.25
2023-04-05T19:00:40.783Z,93.75
2023-04-05T19:02:12.689Z,116.00
2023-04-05T19:03:45.040Z,118.40
2023-04-05T19:05:16.942Z,109.00
2023-04-05T19:06:48.771Z,116.25
2023-04-05T19:08:20.851Z,126.00
2023-04-05T19:09:52.762Z,126.25
2023-04-05T19:11:25.114Z,120.00
2023-04-05T19:12:56.946Z,117.75
2023-04-05T19:14:28.842Z,125.75
2023-04-05T19:16:00.937Z,113.75
2023-04-05T19:17:32.985Z,120.75
2023-04-05T19:19:06.441Z,117.50
2023-04-05T19:20:38.525Z,128.50
2023-04-05T19:22:11.408Z,123.00
2023-04-05T19:23:43.300Z,122.25
2023-04-05T19:25:15.133Z,112.80
2023-04-05T19:26:47.013Z,112.40
2023-04-05T19:28:18.932Z,105.00
2023-04-05T19:29:50.889Z,115.20
2023-04-05T19:31:22.904Z,115.25
2023-04-05T19:32:55.642Z,112.25
2023-04-05T19:34:27.622Z,125.50
2023-04-05T19:35:59.663Z,142.50
2023-04-05T19:37:31.614Z,141.75
2023-04-05T19:39:04.261Z,146.25
2023-04-05T19:40:37.830Z,152.00
2023-04-05T19:42:09.771Z,125.50
2023-04-05T19:43:41.827Z,160.75
2023-04-05T19:45:13.718Z,136.00
2023-04-05T19:46:45.648Z,150.25
2023-04-05T19:48:42.706Z,140.25
2023-04-05T19:50:51.050Z,142.25
2023-04-05T19:52:38.368Z,137.00
2023-04-05T19:54:12.626Z,147.50
2023-04-05T19:55:44.498Z,133.50
2023-04-05T19:57:19.412Z,140.25
2023-04-05T19:59:24.875Z,135.75
2023-04-05T20:00:56.736Z,112.75
2023-04-05T20:02:36.459Z,132.00
2023-04-05T20:04:18.876Z,125.25
2023-04-05T20:05:57.967Z,123.50
2023-04-05T20:07:30.206Z,396.25
2023-04-05T20:09:03.944Z,218.67
2023-04-05T20:10:42.378Z,201.00
2023-04-05T20:12:15.932Z,186.25
2023-04-05T20:13:49.109Z,180.75
2023-04-05T20:15:32.583Z,162.50
2023-04-05T20:17:04.380Z,165.50
2023-04-05T20:18:36.307Z,172.75
2023-04-05T20:20:09.578Z,147.25
2023-04-05T20:21:41.778Z,167.50
2023-04-05T20:23:22.712Z,163.25
2023-04-05T20:24:55.549Z,163.00
2023-04-05T20:26:28.933Z,163.25
2023-04-05T20:28:00.767Z,162.00
2023-04-05T20:29:33.666Z,146.50
2023-04-05T20:31:10.453Z,159.75
2023-04-05T20:32:42.396Z,153.50
2023-04-05T20:34:15.410Z,136.25
2023-04-05T20:35:47.339Z,145.75
2023-04-05T20:37:19.183Z,169.50
2023-04-05T20:38:51.147Z,181.75
2023-04-05T20:40:23.452Z,174.50
2023-04-05T20:41:58.115Z,191.75
2023-04-05T20:43:31.507Z,176.25
2023-04-05T20:45:03.843Z,266.75
2023-04-05T20:46:35.776Z,217.00
2023-04-05T20:48:07.736Z,188.50
2023-04-05T20:49:39.572Z,184.00
2023-04-05T20:51:11.522Z,183.25
2023-04-05T20:52:43.327Z,171.50
2023-04-05T20:54:15.192Z,172.50
2023-04-05T20:55:48.463Z,163.75
2023-04-05T20:57:20.378Z,156.50
2023-04-05T20:58:52.704Z,165.00
2023-04-05T21:00:24.729Z,162.00
2023-04-05T21:01:56.704Z,153.75
2023-04-05T21:03:31.820Z,147.25
2023-04-05T21:05:04.192Z,144.00
2023-04-05T21:06:37.540Z,142.50
2023-04-05T21:08:10.876Z,127.00
2023-04-05T21:09:42.748Z,120.00
2023-04-05T21:11:14.569Z,138.25
2023-04-05T21:12:46.426Z,131.00
2023-04-05T21:14:18.279Z,122.25
2023-04-05T21:15:50.185Z,117.25
2023-04-05T21:17:22.132Z,115.00
2023-04-05T21:18:54.052Z,109.00
2023-04-05T21:20:26.199Z,119.40
2023-04-05T21:21:58.039Z,108.80
2023-04-05T21:23:30.786Z,101.80
2023-04-05T21:25:07.844Z,101.80
2023-04-05T21:26:39.731Z,100.00
2023-04-05T21:28:12.067Z,86.00
2023-04-05T21:29:43.862Z,88.25
2023-04-05T21:31:15.919Z,86.50
2023-04-05T21:32:47.876Z,84.75
2023-04-05T21:34:19.781Z,83.75
2023-04-05T21:35:51.823Z,84.25
2023-04-05T21:37:23.713Z,80.50
2023-04-05T21:38:55.546Z,78.00
2023-04-05T21:40:27.451Z,78.25
2023-04-05T21:41:59.263Z,73.50
2023-04-05T21:43:31.148Z,77.50
2023-04-05T21:45:03.688Z,71.25
2023-04-05T21:46:35.824Z,69.75
2023-04-05T21:48:07.942Z,69.50
2023-04-05T21:49:39.994Z,66.00
2023-04-05T21:51:11.838Z,64.50
2023-04-05T21:52:44.025Z,59.75
2023-04-05T21:54:16.030Z,56.00
2023-04-05T21:55:47.943Z,73.00
2023-04-05T21:57:19.834Z,88.25
2023-04-05T21:58:51.718Z,96.75
2023-04-05T22:00:23.814Z,86.80
2023-04-05T22:01:55.695Z,103.80
2023-04-05T22:03:27.655Z,102.80
2023-04-05T22:17:02.321Z,265.25
2023-04-05T22:18:34.278Z,162.25
2023-04-05T22:20:06.786Z,168.75
2023-04-05T22:21:39.242Z,167.25
2023-04-05T22:23:11.211Z,151.00
2023-04-05T22:24:43.099Z,160.75
2023-04-05T22:26:14.941Z,171.75
2023-04-05T22:27:46.849Z,178.50
2023-04-05T22:29:19.289Z,172.25
2023-04-05T22:30:51.312Z,170.25
2023-04-05T22:32:23.207Z,172.25
2023-04-05T22:33:55.217Z,172.00
